createdAt,value
2022-10-23T00:03:22.667Z,24.2
2022-10-23T00:08:24.834Z,24.2
2022-10-23T00:13:26.952Z,25.1
2022-10-23T00:18:29.117Z,25.6
2022-10-23T00:23:31.304Z,25.6
2022-10-23T00:28:33.320Z,27.1
2022-10-23T00:33:35.465Z,27.8
2022-10-23T00:38:37.449Z,28.6
2022-10-23T00:43:39.444Z,27.9
2022-10-23T00:48:41.909Z,28.7
2022-10-23T00:53:42.494Z,30.1
2022-10-23T00:58:44.575Z,29.5
2022-10-23T01:03:46.916Z,28.9
2022-10-23T01:08:49.282Z,27.4
2022-10-23T01:13:51.772Z,28.2
2022-10-23T01:18:54.125Z,29.6
2022-10-23T01:23:56.500Z,31.5
2022-10-23T01:28:58.666Z,48.4
2022-10-23T01:33:59.260Z,33
2022-10-23T01:39:01.508Z,34.4
2022-10-23T01:44:04.487Z,35.4
2022-10-23T01:49:06.656Z,34.3
2022-10-23T01:54:11.433Z,35.9
2022-10-23T01:59:13.721Z,35.3
2022-10-23T02:04:15.964Z,33.2
2022-10-23T02:09:18.459Z,30.7
2022-10-23T02:14:21.331Z,27.6
2022-10-23T02:19:24.014Z,26.1
2022-10-23T02:24:26.146Z,24.8
2022-10-23T02:29:28.289Z,24.2
2022-10-23T02:34:30.467Z,24.2
2022-10-23T02:39:32.626Z,22.6
2022-10-23T02:44:34.825Z,32
2022-10-23T02:49:38.214Z,21.4
2022-10-23T02:54:40.184Z,19.9
2022-10-23T02:59:42.221Z,19.5
2022-10-23T03:04:44.698Z,19.6
2022-10-23T03:09:46.951Z,19.2
2022-10-23T03:14:49.162Z,19
2022-10-23T03:19:51.949Z,18
2022-10-23T03:24:53.875Z,18
2022-10-23T03:29:55.891Z,18.1
2022-10-23T03:34:57.978Z,18.9
2022-10-23T03:39:59.976Z,19.1
2022-10-23T03:45:02.185Z,19.3
2022-10-23T03:50:04.327Z,19.8
2022-10-23T03:55:06.461Z,19.5
2022-10-23T04:00:08.634Z,29.7
2022-10-23T04:05:13.570Z,19.1
2022-10-23T04:10:15.776Z,19.2
2022-10-23T04:15:18.676Z,19.1
2022-10-23T04:20:20.976Z,19.9
2022-10-23T04:25:23.354Z,19.4
2022-10-23T04:30:26.847Z,19.9
2022-10-23T04:35:29.100Z,20.8
2022-10-23T04:40:31.180Z,20.3
2022-10-23T04:45:33.116Z,20.6
2022-10-23T04:50:35.574Z,20.3
2022-10-23T04:55:38.087Z,20.8
2022-10-23T05:00:40.337Z,20.7
2022-10-23T05:05:42.447Z,21.4
2022-10-23T05:10:44.432Z,22.5
2022-10-23T05:15:46.502Z,21.7
2022-10-23T05:20:48.910Z,22.1
2022-10-23T05:25:51.275Z,20.7
2022-10-23T05:30:53.196Z,20.2
2022-10-23T05:35:55.115Z,21
2022-10-23T05:40:57.055Z,21.9
2022-10-23T05:45:59.030Z,21.1
2022-10-23T05:51:00.945Z,23.3
2022-10-23T05:56:02.942Z,22.2
2022-10-23T06:01:05.209Z,22.8
2022-10-23T06:06:07.769Z,24.6
2022-10-23T06:11:09.932Z,23.8
2022-10-23T06:16:12.149Z,26.1
2022-10-23T06:21:14.970Z,27.1
2022-10-23T06:26:17.201Z,25.5
2022-10-23T06:31:19.154Z,30
2022-10-23T06:36:21.129Z,28.5
2022-10-23T06:41:23.117Z,28.4
2022-10-23T06:46:25.189Z,27.5
2022-10-23T06:51:27.206Z,40
2022-10-23T06:56:29.250Z,24.9
2022-10-23T07:01:31.765Z,20.7
2022-10-23T07:06:35.010Z,17.2
2022-10-23T07:11:37.491Z,16.1
2022-10-23T07:16:39.865Z,18.1
2022-10-23T07:21:41.919Z,14.1
2022-10-23T07:26:44.142Z,13.1
2022-10-23T07:31:46.381Z,11.9
2022-10-23T07:36:48.345Z,9.5
2022-10-23T07:41:50.480Z,10.5
2022-10-23T07:46:52.413Z,8.6
2022-10-23T07:51:54.707Z,10.4
2022-10-23T07:56:56.783Z,7.5
2022-10-23T08:01:59.113Z,10.7
2022-10-23T08:06:59.582Z,7.7
2022-10-23T08:12:01.606Z,7.1
2022-10-23T08:17:03.765Z,6.4
2022-10-23T08:22:06.279Z,6
2022-10-23T08:27:08.408Z,5.9
2022-10-23T08:32:10.520Z,5.7
2022-10-23T08:37:12.498Z,7.4
2022-10-23T08:42:14.679Z,5.3
2022-10-23T08:47:16.822Z,4.8
2022-10-23T08:52:18.793Z,4.3
2022-10-23T08:57:20.760Z,4.2
2022-10-23T09:02:22.871Z,3.3
2022-10-23T09:07:24.994Z,4.6
2022-10-23T09:12:26.911Z,3.2
2022-10-23T09:17:28.933Z,3
2022-10-23T09:22:31.138Z,2.6
2022-10-23T09:27:33.381Z,2.6
2022-10-23T09:32:35.369Z,2.6
2022-10-23T09:37:38.357Z,2.8
2022-10-23T09:42:41.214Z,2.9
2022-10-23T09:47:43.662Z,2.5
2022-10-23T09:52:46.531Z,2.4
2022-10-23T09:57:49.096Z,2.5
2022-10-23T10:02:51.414Z,3.1
2022-10-23T10:07:53.759Z,3.4
2022-10-23T10:12:55.925Z,2.9
2022-10-23T10:18:00.594Z,3.2
2022-10-23T10:23:02.591Z,3.5
2022-10-23T10:28:04.988Z,3
2022-10-23T10:33:07.232Z,2.3
2022-10-23T10:38:09.254Z,2
2022-10-23T10:43:11.346Z,2
2022-10-23T10:48:13.488Z,2.8
2022-10-23T10:53:13.893Z,2
2022-10-23T10:58:15.845Z,1.8
2022-10-23T11:03:17.821Z,1.6
2022-10-23T11:08:20.055Z,1.3
2022-10-23T11:13:23.000Z,1.4
2022-10-23T11:18:25.318Z,1.5
2022-10-23T11:23:27.609Z,1.5
2022-10-23T11:28:29.780Z,1.4
2022-10-23T11:33:31.964Z,1.5
2022-10-23T11:38:34.391Z,1.5
2022-10-23T11:43:37.527Z,2.6
2022-10-23T11:48:39.748Z,3.1
2022-10-23T11:53:41.854Z,3.5
2022-10-23T11:58:43.878Z,3.8
2022-10-23T12:03:46.107Z,3.8
2022-10-23T12:08:48.059Z,3.6
2022-10-23T12:13:50.218Z,3.5
2022-10-23T12:18:52.329Z,2.9
2022-10-23T12:23:56.457Z,3
2022-10-23T12:28:58.749Z,3.1
2022-10-23T12:34:00.746Z,2.9
2022-10-23T12:39:02.879Z,2.6
2022-10-23T12:44:04.903Z,2.9
2022-10-23T12:49:06.767Z,2.9
2022-10-23T12:54:08.681Z,3.4
2022-10-23T12:59:10.599Z,2.8
2022-10-23T13:04:12.887Z,2.9
2022-10-23T13:10:02.345Z,3
2022-10-23T13:15:04.705Z,2.9
2022-10-23T13:20:09.294Z,2.7
2022-10-23T13:25:14.092Z,2.3
2022-10-23T13:30:16.451Z,2.4
2022-10-23T13:35:25.414Z,2.3
2022-10-23T13:40:21.250Z,2.1
2022-10-23T13:45:25.071Z,2.3
2022-10-23T13:50:29.956Z,2.6
2022-10-23T13:55:32.356Z,2.9
2022-10-23T14:00:34.480Z,3
2022-10-23T14:05:36.566Z,3.5
2022-10-23T14:10:38.505Z,3.8
2022-10-23T14:15:40.623Z,3.8
2022-10-23T14:20:42.751Z,3.8
2022-10-23T14:25:44.864Z,3.4
2022-10-23T14:30:46.789Z,3.2
2022-10-23T14:35:48.777Z,3.1
2022-10-23T14:40:50.731Z,3.8
2022-10-23T14:45:52.792Z,4.4
2022-10-23T14:50:54.865Z,4.3
2022-10-23T14:55:57.646Z,4.4
2022-10-23T15:01:00.060Z,4.4
2022-10-23T15:06:02.566Z,4.3
2022-10-23T15:11:07.798Z,4.6
2022-10-23T15:16:14.095Z,4.9
2022-10-23T15:21:16.280Z,4.8
2022-10-23T15:26:18.329Z,5.5
2022-10-23T15:31:20.345Z,6
2022-10-23T15:36:22.381Z,5.3
2022-10-23T15:41:24.413Z,5.1
2022-10-23T15:46:26.455Z,5.3
2022-10-23T15:51:28.419Z,5.2
2022-10-23T15:56:30.394Z,5.3
2022-10-23T16:01:32.899Z,5.2
2022-10-23T16:06:35.687Z,5.4
2022-10-23T16:11:37.692Z,5.4
2022-10-23T16:16:39.697Z,5.6
2022-10-23T16:21:41.756Z,8.7
2022-10-23T16:26:42.097Z,5.5
2022-10-23T16:31:44.521Z,6
2022-10-23T16:36:46.580Z,6
2022-10-23T16:41:48.923Z,5.9
2022-10-23T16:46:50.847Z,5.4
2022-10-23T16:51:52.888Z,5.4
2022-10-23T16:56:55.058Z,5
2022-10-23T17:01:57.548Z,5
2022-10-23T17:07:00.185Z,5.4
2022-10-23T17:12:02.171Z,5.6
2022-10-23T17:17:04.271Z,6.3
2022-10-23T17:22:06.683Z,6.5
2022-10-23T17:27:08.694Z,6.6
2022-10-23T17:32:10.778Z,6.7
2022-10-23T17:37:12.958Z,7.1
2022-10-23T17:42:14.976Z,6.7
2022-10-23T17:47:17.213Z,6.8
2022-10-23T17:52:19.427Z,6.9
2022-10-23T18:02:24.606Z,7.3
2022-10-23T18:07:27.025Z,7.3
2022-10-23T18:12:29.050Z,7.3
2022-10-23T18:17:31.180Z,7.7
2022-10-23T18:22:33.809Z,7.7
2022-10-23T18:27:35.970Z,8
2022-10-23T18:32:37.982Z,8.2
2022-10-23T18:37:42.496Z,8.3
2022-10-23T18:42:45.567Z,8.5
2022-10-23T18:47:48.191Z,9.1
2022-10-23T18:52:51.414Z,9.1
2022-10-23T18:57:53.673Z,9.2
2022-10-23T19:02:55.761Z,9.3
2022-10-23T19:08:04.550Z,9.2
2022-10-23T19:13:06.605Z,9.8
2022-10-23T19:18:09.055Z,9.3
2022-10-23T19:23:17.486Z,9.4
2022-10-23T19:28:19.913Z,9.5
2022-10-23T19:33:21.951Z,9.3
2022-10-23T19:38:27.135Z,9
2022-10-23T19:43:31.654Z,9.1
2022-10-23T19:48:34.055Z,9.1
2022-10-23T19:53:36.301Z,8.7
2022-10-23T19:58:38.897Z,8.8
2022-10-23T20:04:01.044Z,8.7
2022-10-23T20:08:46.812Z,9.1
2022-10-23T20:13:49.836Z,9.4
2022-10-23T20:18:56.520Z,9
2022-10-23T20:24:01.013Z,8.9
2022-10-23T20:29:04.103Z,8.8
2022-10-23T20:34:07.007Z,8.7
2022-10-23T20:39:09.264Z,8.7
2022-10-23T20:44:12.553Z,8.7
2022-10-23T20:49:15.360Z,8
2022-10-23T20:54:19.482Z,8.1
2022-10-23T20:59:22.407Z,8.1
2022-10-23T21:04:25.289Z,7.5
2022-10-23T21:09:31.176Z,7.5
2022-10-23T21:14:33.131Z,7.7
2022-10-23T21:19:35.259Z,7.9
2022-10-23T21:24:37.273Z,7.8
2022-10-23T21:29:39.418Z,8
2022-10-23T21:34:41.919Z,7.5
2022-10-23T21:39:43.945Z,7.8
2022-10-23T21:44:46.126Z,7.3
2022-10-23T21:49:48.107Z,8
2022-10-23T21:54:50.450Z,7.3
2022-10-23T21:59:52.685Z,7.3
2022-10-23T22:04:54.709Z,7.4
2022-10-23T22:09:58.409Z,7.3
2022-10-23T22:15:00.936Z,7.3
2022-10-23T22:20:02.954Z,7.7
2022-10-23T22:25:04.873Z,7.7
2022-10-23T22:30:06.958Z,7.7
2022-10-23T22:35:08.904Z,7.7
2022-10-23T22:40:11.337Z,8.1
2022-10-23T22:45:13.765Z,8.4
2022-10-23T22:50:15.725Z,8
2022-10-23T22:55:17.718Z,8.2
2022-10-23T23:00:19.717Z,8.2
2022-10-23T23:05:21.741Z,8.7
2022-10-23T23:10:23.696Z,8.7
2022-10-23T23:15:25.661Z,9.2
2022-10-23T23:20:27.663Z,9
2022-10-23T23:25:29.593Z,9
2022-10-23T23:30:31.932Z,9.3
2022-10-23T23:35:34.072Z,9.2
2022-10-23T23:40:36.439Z,9
2022-10-23T23:45:38.800Z,8.8
2022-10-23T23:50:40.773Z,8.5
